createdAt,value
2023-02-06T06:24:31.256Z,1.70
2023-02-06T06:27:33.452Z,1.70
2023-02-06T06:30:35.836Z,1.70
2023-02-06T06:33:38.699Z,1.70
2023-02-06T06:36:40.483Z,1.70
2023-02-06T06:39:42.328Z,1.60
2023-02-06T06:42:44.151Z,1.60
2023-02-06T06:45:46.468Z,1.60
2023-02-06T06:48:48.217Z,1.60
2023-02-06T06:51:49.921Z,1.50
2023-02-06T06:54:52.589Z,1.60
2023-02-06T06:57:55.595Z,1.60
2023-02-06T07:00:57.309Z,1.60
2023-02-06T07:03:59.787Z,1.50
2023-02-06T07:07:01.454Z,1.50
2023-02-06T07:10:03.292Z,1.50
2023-02-06T07:13:06.144Z,1.50
2023-02-06T07:16:08.250Z,1.50
2023-02-06T07:19:09.956Z,1.40
2023-02-06T07:22:11.717Z,1.40
2023-02-06T07:25:13.519Z,1.30
2023-02-06T07:28:15.304Z,1.20
2023-02-06T07:31:17.114Z,1.20
2023-02-06T07:34:18.914Z,1.20
2023-02-06T07:37:20.550Z,1.20
2023-02-06T07:40:22.419Z,1.10
2023-02-06T07:43:24.190Z,1.10
2023-02-06T07:46:25.899Z,1.10
2023-02-06T07:49:27.565Z,1.10
2023-02-06T07:52:29.552Z,1.10
2023-02-06T07:55:31.255Z,1.10
2023-02-06T07:58:32.881Z,1.10
2023-02-06T08:01:34.626Z,1.00
2023-02-06T08:04:36.704Z,1.00
2023-02-06T08:07:38.493Z,1.00
2023-02-06T08:10:40.206Z,1.00
2023-02-06T08:13:42.903Z,1.10
2023-02-06T08:16:44.641Z,1.10
2023-02-06T08:19:46.366Z,1.10
2023-02-06T08:22:48.135Z,1.10
2023-02-06T08:25:49.801Z,1.10
2023-02-06T08:28:52.085Z,1.10
2023-02-06T08:31:53.841Z,1.10
2023-02-06T08:34:55.603Z,1.20
2023-02-06T08:37:57.624Z,1.20
2023-02-06T08:40:59.308Z,1.30
2023-02-06T08:44:01.910Z,1.40
2023-02-06T08:47:10.073Z,1.40
2023-02-06T08:50:12.432Z,1.50
2023-02-06T08:53:14.180Z,1.60
2023-02-06T08:56:15.827Z,1.70
2023-02-06T08:59:18.404Z,1.80
2023-02-06T09:02:20.392Z,1.90
2023-02-06T09:05:22.323Z,2.10
2023-02-06T09:08:23.967Z,2.20
2023-02-06T09:11:26.334Z,2.30
2023-02-06T09:14:29.406Z,2.50
2023-02-06T09:17:31.652Z,2.60
2023-02-06T09:20:33.387Z,2.70
2023-02-06T09:23:35.864Z,2.90
2023-02-06T09:26:44.736Z,3.00
2023-02-06T09:29:52.071Z,3.20
2023-02-06T09:32:54.071Z,3.30
2023-02-06T09:36:09.399Z,3.50
2023-02-06T09:39:11.156Z,3.60
2023-02-06T09:42:30.359Z,3.80
2023-02-06T09:45:32.166Z,3.90
2023-02-06T09:48:35.749Z,4.00
2023-02-06T09:52:00.195Z,4.20
2023-02-06T09:55:08.229Z,4.30
2023-02-06T09:58:22.342Z,4.50
2023-02-06T10:01:39.016Z,4.50
2023-02-06T10:04:52.222Z,4.70
2023-02-06T10:08:18.496Z,4.90
2023-02-06T10:11:51.383Z,5.00
2023-02-06T10:14:54.575Z,5.10
2023-02-06T10:18:19.093Z,5.30
2023-02-06T10:21:32.730Z,5.30
2023-02-06T10:25:00.347Z,5.50
2023-02-06T10:28:07.026Z,5.60
2023-02-06T10:31:08.792Z,5.70
2023-02-06T10:34:22.946Z,5.90
2023-02-06T10:37:39.386Z,6.00
2023-02-06T10:41:05.992Z,6.10
2023-02-06T10:44:19.414Z,6.20
2023-02-06T10:47:46.343Z,6.30
2023-02-06T10:51:01.809Z,6.30
2023-02-06T10:54:05.250Z,6.40
2023-02-06T10:57:13.920Z,6.50
2023-02-06T11:00:23.409Z,6.60
2023-02-06T11:03:30.485Z,6.70
2023-02-06T11:06:32.153Z,6.70
2023-02-06T11:09:33.865Z,6.80
2023-02-06T11:12:41.371Z,6.80
2023-02-06T11:16:03.882Z,6.90
2023-02-06T11:19:33.694Z,7.00
2023-02-06T11:22:51.116Z,7.00
2023-02-06T11:26:07.073Z,7.20
2023-02-06T11:29:19.890Z,7.20
2023-02-06T11:32:28.336Z,7.30
2023-02-06T11:35:40.237Z,7.40
2023-02-06T11:38:43.965Z,7.50
2023-02-06T11:42:02.241Z,7.50
2023-02-06T11:45:22.613Z,7.60
2023-02-06T11:48:38.430Z,7.60
2023-02-06T11:51:54.375Z,7.80
2023-02-06T11:55:01.578Z,7.80
2023-02-06T11:58:13.659Z,7.90
2023-02-06T12:01:20.473Z,8.00
2023-02-06T12:04:25.495Z,8.00
2023-02-06T12:07:34.289Z,8.10
2023-02-06T12:10:38.575Z,8.10
2023-02-06T12:13:44.269Z,8.20
2023-02-06T12:16:46.257Z,8.20
2023-02-06T12:19:52.338Z,8.30
2023-02-06T12:23:03.590Z,8.30
2023-02-06T12:26:16.750Z,8.40
2023-02-06T12:29:22.642Z,8.40
2023-02-06T12:32:52.707Z,8.50
2023-02-06T12:36:00.707Z,8.50
2023-02-06T12:39:17.349Z,8.50
2023-02-06T12:42:32.010Z,8.60
2023-02-06T12:45:51.916Z,8.60
2023-02-06T12:49:07.736Z,8.70
2023-02-06T12:52:20.829Z,8.80
2023-02-06T12:55:54.398Z,8.80
2023-02-06T12:59:17.574Z,8.90
2023-02-06T13:02:22.330Z,9.00
2023-02-06T13:05:34.282Z,9.10
2023-02-06T13:08:56.089Z,9.20
2023-02-06T13:12:10.822Z,9.20
2023-02-06T13:15:23.846Z,9.30
2023-02-06T13:18:36.177Z,9.40
2023-02-06T13:21:37.832Z,9.40
2023-02-06T13:24:40.687Z,9.40
2023-02-06T13:27:42.374Z,9.50
2023-02-06T13:30:48.059Z,9.60
2023-02-06T13:33:58.016Z,9.70
2023-02-06T13:37:28.177Z,9.70
2023-02-06T13:40:35.301Z,9.80
2023-02-06T13:43:37.599Z,10.00
2023-02-06T13:47:06.238Z,10.00
2023-02-06T13:50:29.514Z,10.00
2023-02-06T13:53:43.485Z,10.00
2023-02-06T13:57:06.709Z,10.10
2023-02-06T14:00:24.200Z,10.10
2023-02-06T14:03:30.117Z,10.10
2023-02-06T14:07:01.526Z,10.20
2023-02-06T14:10:27.566Z,10.20
2023-02-06T14:13:35.328Z,10.30
2023-02-06T14:16:50.436Z,10.40
2023-02-06T14:20:16.809Z,10.50
2023-02-06T14:23:45.916Z,10.50
2023-02-06T14:27:21.892Z,10.50
2023-02-06T14:31:14.891Z,10.40
2023-02-06T14:34:19.599Z,10.40
2023-02-06T14:37:27.080Z,10.40
2023-02-06T14:40:31.294Z,10.40
2023-02-06T14:43:36.769Z,10.40
2023-02-06T14:46:40.553Z,10.40
2023-02-06T14:49:42.233Z,10.50
2023-02-06T14:52:44.093Z,10.60
2023-02-06T14:55:47.012Z,10.80
2023-02-06T14:58:48.777Z,11.10
2023-02-06T15:01:51.904Z,11.40
2023-02-06T15:04:54.103Z,11.80
2023-02-06T15:08:00.561Z,12.20
2023-02-06T15:11:04.444Z,12.50
2023-02-06T15:14:21.977Z,12.80
2023-02-06T15:17:26.396Z,13.10
2023-02-06T15:20:41.428Z,13.30
2023-02-06T15:23:58.127Z,13.50
2023-02-06T15:27:21.735Z,13.50
2023-02-06T15:30:25.762Z,13.50
2023-02-06T15:33:30.065Z,13.20
2023-02-06T15:36:37.303Z,12.90
2023-02-06T15:39:40.419Z,12.60
2023-02-06T15:42:42.380Z,12.20
2023-02-06T15:45:44.149Z,11.80
2023-02-06T15:48:52.885Z,11.40
2023-02-06T15:51:54.935Z,11.00
2023-02-06T15:55:00.047Z,10.70
2023-02-06T15:58:03.696Z,10.50
2023-02-06T16:01:05.747Z,10.20
2023-02-06T16:04:37.174Z,10.00
2023-02-06T16:07:38.815Z,9.70
2023-02-06T16:10:40.516Z,9.50
2023-02-06T16:13:42.211Z,9.40
2023-02-06T16:16:43.950Z,9.20
2023-02-06T16:19:53.200Z,9.00
2023-02-06T16:22:57.167Z,8.80
2023-02-06T16:26:21.975Z,8.50
2023-02-06T16:29:31.386Z,8.20
2023-02-06T16:32:35.413Z,8.00
2023-02-06T16:35:37.060Z,7.80
2023-02-06T16:38:38.727Z,7.60
2023-02-06T16:41:40.592Z,7.40
2023-02-06T16:44:45.011Z,7.20
2023-02-06T16:47:47.978Z,7.00
2023-02-06T16:50:49.613Z,6.80
2023-02-06T16:53:51.424Z,6.70
2023-02-06T16:56:53.985Z,6.50
2023-02-06T16:59:55.774Z,6.30
2023-02-06T17:02:57.785Z,6.20
2023-02-06T17:05:59.713Z,6.10
2023-02-06T17:09:06.504Z,6.00
2023-02-06T17:12:15.092Z,5.80
2023-02-06T17:15:17.363Z,5.70
2023-02-06T17:18:20.013Z,5.50
2023-02-06T17:21:22.433Z,5.40
2023-02-06T17:24:24.082Z,5.30
2023-02-06T17:27:25.833Z,5.10
2023-02-06T17:30:27.674Z,5.00
2023-02-06T17:33:29.643Z,5.00
2023-02-06T17:36:33.032Z,4.80
2023-02-06T17:39:35.495Z,4.70
2023-02-06T17:42:37.792Z,4.70
2023-02-06T17:45:39.699Z,4.50
2023-02-06T17:48:43.214Z,4.50
2023-02-06T17:51:45.063Z,4.50
2023-02-06T17:54:47.218Z,4.40
2023-02-06T17:57:48.974Z,4.30
2023-02-06T18:00:50.689Z,4.20
2023-02-06T18:03:52.682Z,4.10
2023-02-06T18:06:54.437Z,4.10
2023-02-06T18:09:56.098Z,4.00
2023-02-06T18:12:57.922Z,4.00
2023-02-06T18:15:59.582Z,3.90
2023-02-06T18:19:01.502Z,3.90
2023-02-06T18:22:03.248Z,3.80
2023-02-06T18:25:05.148Z,3.70
2023-02-06T18:28:07.072Z,3.70
2023-02-06T18:31:30.064Z,3.70
2023-02-06T18:34:33.102Z,3.60
2023-02-06T18:37:35.049Z,3.50
2023-02-06T18:40:40.578Z,3.50
2023-02-06T18:43:42.349Z,3.30
2023-02-06T18:46:44.059Z,3.30
2023-02-06T18:49:45.901Z,3.10
2023-02-06T18:52:48.655Z,3.10
2023-02-06T18:55:57.737Z,3.10
2023-02-06T18:58:59.562Z,3.10
2023-02-06T19:02:01.360Z,3.00
2023-02-06T19:05:03.455Z,2.90
2023-02-06T19:08:05.190Z,2.80
2023-02-06T19:11:06.893Z,2.80
2023-02-06T19:14:10.918Z,2.80
2023-02-06T19:17:12.579Z,2.70
2023-02-06T19:20:14.288Z,2.60
2023-02-06T19:23:15.996Z,2.50
2023-02-06T19:26:17.715Z,2.50
2023-02-06T19:29:34.638Z,2.40
2023-02-06T19:32:37.690Z,2.40
2023-02-06T19:35:40.790Z,2.40
2023-02-06T19:38:43.060Z,2.30
2023-02-06T19:41:44.853Z,2.20
2023-02-06T19:44:46.728Z,2.10
2023-02-06T19:47:48.378Z,2.10
2023-02-06T19:50:50.013Z,2.10
2023-02-06T19:53:52.657Z,2.10
2023-02-06T19:56:54.336Z,2.10
2023-02-06T19:59:56.115Z,2.10
2023-02-06T20:02:57.837Z,1.90
2023-02-06T20:06:06.492Z,1.80
2023-02-06T20:09:08.135Z,1.60
2023-02-06T20:12:11.374Z,1.60
2023-02-06T20:15:14.053Z,1.60
2023-02-06T20:18:15.684Z,1.60
2023-02-06T20:21:28.106Z,1.60
2023-02-06T20:24:31.377Z,1.60
2023-02-06T20:27:33.142Z,1.60
2023-02-06T20:30:34.939Z,1.50
2023-02-06T20:33:38.457Z,1.50
2023-02-06T20:36:41.774Z,1.50
2023-02-06T20:39:43.721Z,1.50
2023-02-06T20:42:45.459Z,1.40
2023-02-06T20:45:47.153Z,1.40
2023-02-06T20:48:53.761Z,1.40
2023-02-06T20:51:55.448Z,1.40
2023-02-06T20:54:57.241Z,1.40
2023-02-06T20:57:59.025Z,1.40
2023-02-06T21:01:00.762Z,1.40
2023-02-06T21:04:04.527Z,1.50
2023-02-06T21:07:06.246Z,1.60
2023-02-06T21:10:08.027Z,1.70
2023-02-06T21:13:09.893Z,1.80
2023-02-06T21:16:13.528Z,1.90
2023-02-06T21:19:16.450Z,1.90
2023-02-06T21:22:18.336Z,2.00
2023-02-06T21:25:20.544Z,2.10
2023-02-06T21:28:22.494Z,2.10
2023-02-06T21:31:32.994Z,2.20
2023-02-06T21:34:35.865Z,2.20
2023-02-06T21:37:37.972Z,2.20
2023-02-06T21:40:39.623Z,2.30
2023-02-06T21:43:41.572Z,2.40
2023-02-06T21:46:43.210Z,2.50
2023-02-06T21:49:46.506Z,2.50
2023-02-06T21:52:48.266Z,2.50
2023-02-06T21:55:49.919Z,2.50
2023-02-06T21:58:51.652Z,2.50
2023-02-06T22:01:53.798Z,2.50
2023-02-06T22:04:55.739Z,2.50
2023-02-06T22:07:58.713Z,2.50
2023-02-06T22:11:00.371Z,2.40
2023-02-06T22:14:04.961Z,2.40
2023-02-06T22:17:06.635Z,2.40
2023-02-06T22:20:08.527Z,2.30
2023-02-06T22:23:10.225Z,2.20
2023-02-06T22:26:13.026Z,2.10
2023-02-06T22:29:15.809Z,2.10
2023-02-06T22:32:17.769Z,2.00
2023-02-06T22:35:19.412Z,1.90
2023-02-06T22:38:21.075Z,1.90
